Terminal Aerodrome Forecast
Issued by NWS

Home | Current Version | Previous Version | Text Only | Print | Product List | Glossary On
Versions: 1 2 3 4 5 6 7 8 9 10 11 12 13 14 15 16 17 18
829
FTUS46 KSEW 290022 AAA
TAFPAE
TAF AMD
KPAE 290022Z 2900/2924 19017G27KT P6SM -SHRA SCT025 BKN045 BKN080
     FM290300 19011KT P6SM VCSH BKN035 BKN050
     FM290600 16006KT P6SM VCSH OVC025
     FM291000 17004KT P6SM VCSH OVC015
     FM291400 VRB03KT 5SM BR OVC010
     FM292000 30006KT P6SM SCT025 BKN045=

USA.gov is the U.S. government's official web portal to all federal, state and local government web resources and services.